sensor_id;sensor_type;location;lat;lon;timestamp;temperature;humidity
37300;DHT22;23184;51.902;12.836;2023-02-22T00:00:14;8.40;99.90
37300;DHT22;23184;51.902;12.836;2023-02-22T00:02:48;8.40;99.90
37300;DHT22;23184;51.902;12.836;2023-02-22T00:05:15;8.40;99.90
37300;DHT22;23184;51.902;12.836;2023-02-22T00:07:43;8.40;99.90
37300;DHT22;23184;51.902;12.836;2023-02-22T00:10:09;8.50;99.90
37300;DHT22;23184;51.902;12.836;2023-02-22T00:12:41;8.50;99.90
37300;DHT22;23184;51.902;12.836;2023-02-22T00:15:07;8.50;99.90
37300;DHT22;23184;51.902;12.836;2023-02-22T00:17:34;8.50;99.90
37300;DHT22;23184;51.902;12.836;2023-02-22T00:19:59;8.50;99.90
37300;DHT22;23184;51.902;12.836;2023-02-22T00:22:25;8.50;99.90
37300;DHT22;23184;51.902;12.836;2023-02-22T00:24:50;8.50;99.90
37300;DHT22;23184;51.902;12.836;2023-02-22T00:27:16;8.50;99.90
37300;DHT22;23184;51.902;12.836;2023-02-22T00:29:45;8.50;99.90
37300;DHT22;23184;51.902;12.836;2023-02-22T00:32:11;8.50;99.90
37300;DHT22;23184;51.902;12.836;2023-02-22T00:34:37;8.50;99.90
37300;DHT22;23184;51.902;12.836;2023-02-22T00:37:02;8.40;99.90
37300;DHT22;23184;51.902;12.836;2023-02-22T00:39:29;8.40;99.90
37300;DHT22;23184;51.902;12.836;2023-02-22T00:41:55;8.50;99.90
37300;DHT22;23184;51.902;12.836;2023-02-22T00:44:20;8.40;99.90
37300;DHT22;23184;51.902;12.836;2023-02-22T00:46:46;8.40;99.90
37300;DHT22;23184;51.902;12.836;2023-02-22T00:49:12;8.40;99.90
37300;DHT22;23184;51.902;12.836;2023-02-22T00:51:37;8.40;99.90
37300;DHT22;23184;51.902;12.836;2023-02-22T00:54:03;8.40;99.90
37300;DHT22;23184;51.902;12.836;2023-02-22T00:56:31;8.30;99.90
37300;DHT22;23184;51.902;12.836;2023-02-22T00:58:56;8.30;99.90
37300;DHT22;23184;51.902;12.836;2023-02-22T01:01:22;8.30;99.90
37300;DHT22;23184;51.902;12.836;2023-02-22T01:03:48;8.30;99.90
37300;DHT22;23184;51.902;12.836;2023-02-22T01:06:13;8.30;99.90
37300;DHT22;23184;51.902;12.836;2023-02-22T01:08:43;8.30;99.90
37300;DHT22;23184;51.902;12.836;2023-02-22T01:11:09;8.30;99.90
37300;DHT22;23184;51.902;12.836;2023-02-22T01:13:34;8.30;99.90
37300;DHT22;23184;51.902;12.836;2023-02-22T01:16:00;8.30;99.90
37300;DHT22;23184;51.902;12.836;2023-02-22T01:18:25;8.30;99.90
37300;DHT22;23184;51.902;12.836;2023-02-22T01:20:51;8.20;99.90
37300;DHT22;23184;51.902;12.836;2023-02-22T01:23:16;8.20;99.90
37300;DHT22;23184;51.902;12.836;2023-02-22T01:25:42;8.20;99.90
37300;DHT22;23184;51.902;12.836;2023-02-22T01:28:08;8.10;99.90
37300;DHT22;23184;51.902;12.836;2023-02-22T01:30:34;8.10;99.90
37300;DHT22;23184;51.902;12.836;2023-02-22T01:33:02;8.10;99.90
37300;DHT22;23184;51.902;12.836;2023-02-22T01:35:30;8.00;99.90
37300;DHT22;23184;51.902;12.836;2023-02-22T01:37:57;8.00;99.90
37300;DHT22;23184;51.902;12.836;2023-02-22T01:40:26;8.00;99.90
37300;DHT22;23184;51.902;12.836;2023-02-22T01:42:54;8.00;99.90
37300;DHT22;23184;51.902;12.836;2023-02-22T01:50:59;8.00;99.90
37300;DHT22;23184;51.902;12.836;2023-02-22T01:53:30;7.90;99.90
37300;DHT22;23184;51.902;12.836;2023-02-22T01:55:57;7.90;99.90
37300;DHT22;23184;51.902;12.836;2023-02-22T01:58:25;7.90;99.90
37300;DHT22;23184;51.902;12.836;2023-02-22T02:00:52;7.90;99.90
37300;DHT22;23184;51.902;12.836;2023-02-22T02:03:21;7.90;99.90
37300;DHT22;23184;51.902;12.836;2023-02-22T02:05:49;7.90;99.90
37300;DHT22;23184;51.902;12.836;2023-02-22T02:11:23;7.90;99.90
37300;DHT22;23184;51.902;12.836;2023-02-22T02:13:51;7.90;99.90
37300;DHT22;23184;51.902;12.836;2023-02-22T02:16:19;7.80;99.90
37300;DHT22;23184;51.902;12.836;2023-02-22T02:18:46;7.80;99.90
37300;DHT22;23184;51.902;12.836;2023-02-22T02:21:37;7.70;99.90
37300;DHT22;23184;51.902;12.836;2023-02-22T02:24:35;7.70;99.90
37300;DHT22;23184;51.902;12.836;2023-02-22T02:27:26;7.60;99.90
37300;DHT22;23184;51.902;12.836;2023-02-22T02:30:22;7.60;99.90
37300;DHT22;23184;51.902;12.836;2023-02-22T02:36:15;7.60;99.90
37300;DHT22;23184;51.902;12.836;2023-02-22T02:38:47;7.60;99.90
37300;DHT22;23184;51.902;12.836;2023-02-22T02:41:29;7.60;99.90
37300;DHT22;23184;51.902;12.836;2023-02-22T02:44:12;7.60;99.90
37300;DHT22;23184;51.902;12.836;2023-02-22T02:47:02;7.60;99.90
37300;DHT22;23184;51.902;12.836;2023-02-22T02:49:55;7.60;99.90
37300;DHT22;23184;51.902;12.836;2023-02-22T02:52:23;7.50;99.90
37300;DHT22;23184;51.902;12.836;2023-02-22T02:54:50;7.50;99.90
37300;DHT22;23184;51.902;12.836;2023-02-22T02:57:16;7.50;99.90
37300;DHT22;23184;51.902;12.836;2023-02-22T02:59:41;7.50;99.90
37300;DHT22;23184;51.902;12.836;2023-02-22T03:18:18;7.50;99.90
37300;DHT22;23184;51.902;12.836;2023-02-22T03:21:10;7.50;99.90
37300;DHT22;23184;51.902;12.836;2023-02-22T03:23:58;7.50;99.90
37300;DHT22;23184;51.902;12.836;2023-02-22T03:26:34;7.40;99.90
37300;DHT22;23184;51.902;12.836;2023-02-22T03:29:02;7.40;99.90
37300;DHT22;23184;51.902;12.836;2023-02-22T03:31:33;7.50;99.90
37300;DHT22;23184;51.902;12.836;2023-02-22T03:34:06;7.40;99.90
37300;DHT22;23184;51.902;12.836;2023-02-22T03:36:37;7.40;99.90
37300;DHT22;23184;51.902;12.836;2023-02-22T03:39:06;7.30;99.90
37300;DHT22;23184;51.902;12.836;2023-02-22T03:41:34;7.30;99.90
37300;DHT22;23184;51.902;12.836;2023-02-22T03:44:08;7.30;99.90
37300;DHT22;23184;51.902;12.836;2023-02-22T03:46:39;7.30;99.90
37300;DHT22;23184;51.902;12.836;2023-02-22T03:49:18;7.30;99.90
37300;DHT22;23184;51.902;12.836;2023-02-22T03:51:46;7.20;99.90
37300;DHT22;23184;51.902;12.836;2023-02-22T03:54:12;7.30;99.90
37300;DHT22;23184;51.902;12.836;2023-02-22T03:56:54;7.20;99.90
37300;DHT22;23184;51.902;12.836;2023-02-22T03:59:22;7.20;99.90
37300;DHT22;23184;51.902;12.836;2023-02-22T04:01:52;7.20;99.90
37300;DHT22;23184;51.902;12.836;2023-02-22T04:04:17;7.20;99.90
37300;DHT22;23184;51.902;12.836;2023-02-22T04:06:44;7.20;99.90
37300;DHT22;23184;51.902;12.836;2023-02-22T04:09:09;7.20;99.90
37300;DHT22;23184;51.902;12.836;2023-02-22T04:11:36;7.20;99.90
37300;DHT22;23184;51.902;12.836;2023-02-22T04:14:01;7.20;99.90
37300;DHT22;23184;51.902;12.836;2023-02-22T04:16:27;7.20;99.90
37300;DHT22;23184;51.902;12.836;2023-02-22T04:18:53;7.10;99.90
37300;DHT22;23184;51.902;12.836;2023-02-22T04:21:18;7.20;99.90
37300;DHT22;23184;51.902;12.836;2023-02-22T04:23:44;7.10;99.90
37300;DHT22;23184;51.902;12.836;2023-02-22T04:26:09;7.10;99.90
37300;DHT22;23184;51.902;12.836;2023-02-22T04:28:35;7.10;99.90
37300;DHT22;23184;51.902;12.836;2023-02-22T04:31:00;7.10;99.90
37300;DHT22;23184;51.902;12.836;2023-02-22T04:33:26;7.10;99.90
37300;DHT22;23184;51.902;12.836;2023-02-22T04:35:51;7.10;99.90
37300;DHT22;23184;51.902;12.836;2023-02-22T04:38:17;7.10;99.90
37300;DHT22;23184;51.902;12.836;2023-02-22T04:40:42;7.10;99.90
37300;DHT22;23184;51.902;12.836;2023-02-22T04:43:08;7.10;99.90
37300;DHT22;23184;51.902;12.836;2023-02-22T04:45:33;7.10;99.90
37300;DHT22;23184;51.902;12.836;2023-02-22T04:47:59;7.10;99.90
37300;DHT22;23184;51.902;12.836;2023-02-22T04:50:24;7.10;99.90
37300;DHT22;23184;51.902;12.836;2023-02-22T04:52:50;7.10;99.90
37300;DHT22;23184;51.902;12.836;2023-02-22T04:55:16;7.10;99.90
37300;DHT22;23184;51.902;12.836;2023-02-22T04:57:41;7.10;99.90
37300;DHT22;23184;51.902;12.836;2023-02-22T05:00:07;7.00;99.90
37300;DHT22;23184;51.902;12.836;2023-02-22T05:02:36;7.00;99.90
37300;DHT22;23184;51.902;12.836;2023-02-22T05:05:03;7.00;99.90
37300;DHT22;23184;51.902;12.836;2023-02-22T05:07:28;7.00;99.90
37300;DHT22;23184;51.902;12.836;2023-02-22T05:09:54;7.00;99.90
37300;DHT22;23184;51.902;12.836;2023-02-22T05:12:19;7.00;99.90
37300;DHT22;23184;51.902;12.836;2023-02-22T05:14:45;7.00;99.90
37300;DHT22;23184;51.902;12.836;2023-02-22T05:17:11;7.00;99.90
37300;DHT22;23184;51.902;12.836;2023-02-22T05:19:37;7.00;99.90
37300;DHT22;23184;51.902;12.836;2023-02-22T05:22:02;7.00;99.90
37300;DHT22;23184;51.902;12.836;2023-02-22T05:24:30;6.90;99.90
37300;DHT22;23184;51.902;12.836;2023-02-22T05:26:55;6.90;99.90
37300;DHT22;23184;51.902;12.836;2023-02-22T05:29:21;6.90;99.90
37300;DHT22;23184;51.902;12.836;2023-02-22T05:31:46;6.90;99.90
37300;DHT22;23184;51.902;12.836;2023-02-22T05:34:12;6.90;99.90
37300;DHT22;23184;51.902;12.836;2023-02-22T05:36:38;6.90;99.90
37300;DHT22;23184;51.902;12.836;2023-02-22T05:39:04;6.90;99.90
37300;DHT22;23184;51.902;12.836;2023-02-22T05:41:29;6.90;99.90
37300;DHT22;23184;51.902;12.836;2023-02-22T05:43:55;6.90;99.90
37300;DHT22;23184;51.902;12.836;2023-02-22T05:46:20;6.90;99.90
37300;DHT22;23184;51.902;12.836;2023-02-22T05:48:46;6.90;99.90
37300;DHT22;23184;51.902;12.836;2023-02-22T05:51:11;6.90;99.90
37300;DHT22;23184;51.902;12.836;2023-02-22T05:53:37;6.90;99.90
37300;DHT22;23184;51.902;12.836;2023-02-22T05:56:03;6.90;99.90
37300;DHT22;23184;51.902;12.836;2023-02-22T05:58:29;6.90;99.90
37300;DHT22;23184;51.902;12.836;2023-02-22T06:00:54;6.90;99.90
37300;DHT22;23184;51.902;12.836;2023-02-22T06:03:20;6.90;99.90
37300;DHT22;23184;51.902;12.836;2023-02-22T06:05:45;6.90;99.90
37300;DHT22;23184;51.902;12.836;2023-02-22T06:08:11;6.90;99.90
37300;DHT22;23184;51.902;12.836;2023-02-22T06:10:36;6.90;99.90
37300;DHT22;23184;51.902;12.836;2023-02-22T06:13:03;6.90;99.90
37300;DHT22;23184;51.902;12.836;2023-02-22T06:15:29;6.90;99.90
37300;DHT22;23184;51.902;12.836;2023-02-22T06:17:55;6.90;99.90
37300;DHT22;23184;51.902;12.836;2023-02-22T06:20:23;6.90;99.90
37300;DHT22;23184;51.902;12.836;2023-02-22T06:22:50;6.90;99.90
37300;DHT22;23184;51.902;12.836;2023-02-22T06:25:18;6.90;99.90
37300;DHT22;23184;51.902;12.836;2023-02-22T06:27:44;6.90;99.90
37300;DHT22;23184;51.902;12.836;2023-02-22T06:30:11;6.90;99.90
37300;DHT22;23184;51.902;12.836;2023-02-22T06:32:37;6.90;99.90
37300;DHT22;23184;51.902;12.836;2023-02-22T06:35:02;6.90;99.90
37300;DHT22;23184;51.902;12.836;2023-02-22T06:37:28;7.00;99.90
37300;DHT22;23184;51.902;12.836;2023-02-22T06:39:53;7.00;99.90
37300;DHT22;23184;51.902;12.836;2023-02-22T06:42:19;7.00;99.90
37300;DHT22;23184;51.902;12.836;2023-02-22T06:44:44;7.00;99.90
37300;DHT22;23184;51.902;12.836;2023-02-22T06:47:10;7.00;99.90
37300;DHT22;23184;51.902;12.836;2023-02-22T06:49:35;7.00;99.90
37300;DHT22;23184;51.902;12.836;2023-02-22T06:52:06;7.00;99.90
37300;DHT22;23184;51.902;12.836;2023-02-22T06:54:32;7.00;99.90
37300;DHT22;23184;51.902;12.836;2023-02-22T06:56:57;7.00;99.90
37300;DHT22;23184;51.902;12.836;2023-02-22T06:59:24;7.00;99.90
37300;DHT22;23184;51.902;12.836;2023-02-22T07:01:49;7.00;99.90
37300;DHT22;23184;51.902;12.836;2023-02-22T07:04:15;7.00;99.90
37300;DHT22;23184;51.902;12.836;2023-02-22T07:06:45;7.00;99.90
37300;DHT22;23184;51.902;12.836;2023-02-22T07:09:12;7.00;99.90
37300;DHT22;23184;51.902;12.836;2023-02-22T07:11:38;7.10;99.90
37300;DHT22;23184;51.902;12.836;2023-02-22T07:14:04;7.10;99.90
37300;DHT22;23184;51.902;12.836;2023-02-22T07:16:30;7.10;99.90
37300;DHT22;23184;51.902;12.836;2023-02-22T07:18:55;7.10;99.90
37300;DHT22;23184;51.902;12.836;2023-02-22T07:21:21;7.20;99.90
37300;DHT22;23184;51.902;12.836;2023-02-22T07:23:54;7.20;99.90
37300;DHT22;23184;51.902;12.836;2023-02-22T07:26:20;7.20;99.90
37300;DHT22;23184;51.902;12.836;2023-02-22T07:28:46;7.20;99.90
37300;DHT22;23184;51.902;12.836;2023-02-22T07:31:11;7.30;99.90
37300;DHT22;23184;51.902;12.836;2023-02-22T07:33:37;7.30;99.90
37300;DHT22;23184;51.902;12.836;2023-02-22T07:36:03;7.30;99.90
37300;DHT22;23184;51.902;12.836;2023-02-22T07:38:30;7.30;99.90
37300;DHT22;23184;51.902;12.836;2023-02-22T07:40:55;7.30;99.90
37300;DHT22;23184;51.902;12.836;2023-02-22T07:43:26;7.30;99.90
37300;DHT22;23184;51.902;12.836;2023-02-22T07:45:55;7.40;99.90
37300;DHT22;23184;51.902;12.836;2023-02-22T07:48:23;7.40;99.90
37300;DHT22;23184;51.902;12.836;2023-02-22T07:50:49;7.40;99.90
37300;DHT22;23184;51.902;12.836;2023-02-22T07:53:17;7.40;99.90
37300;DHT22;23184;51.902;12.836;2023-02-22T07:55:43;7.50;99.90
37300;DHT22;23184;51.902;12.836;2023-02-22T07:58:12;7.50;99.90
37300;DHT22;23184;51.902;12.836;2023-02-22T08:00:39;7.50;99.90
37300;DHT22;23184;51.902;12.836;2023-02-22T08:03:08;7.60;99.90
37300;DHT22;23184;51.902;12.836;2023-02-22T08:05:36;7.60;99.90
37300;DHT22;23184;51.902;12.836;2023-02-22T08:08:02;7.60;99.90
37300;DHT22;23184;51.902;12.836;2023-02-22T08:10:28;7.60;99.90
37300;DHT22;23184;51.902;12.836;2023-02-22T08:12:55;7.60;99.90
37300;DHT22;23184;51.902;12.836;2023-02-22T08:15:24;7.60;99.90
37300;DHT22;23184;51.902;12.836;2023-02-22T08:17:50;7.60;99.90
37300;DHT22;23184;51.902;12.836;2023-02-22T08:20:17;7.70;99.90
37300;DHT22;23184;51.902;12.836;2023-02-22T08:22:44;7.70;99.90
37300;DHT22;23184;51.902;12.836;2023-02-22T08:25:10;7.70;99.90
37300;DHT22;23184;51.902;12.836;2023-02-22T08:27:36;7.70;99.90
37300;DHT22;23184;51.902;12.836;2023-02-22T08:30:02;7.80;99.90
37300;DHT22;23184;51.902;12.836;2023-02-22T08:32:28;7.90;99.90
37300;DHT22;23184;51.902;12.836;2023-02-22T08:34:53;7.80;99.90
37300;DHT22;23184;51.902;12.836;2023-02-22T08:37:19;7.80;99.90
37300;DHT22;23184;51.902;12.836;2023-02-22T08:39:44;7.90;99.90
37300;DHT22;23184;51.902;12.836;2023-02-22T08:42:10;7.90;99.90
37300;DHT22;23184;51.902;12.836;2023-02-22T08:44:37;8.00;99.90
37300;DHT22;23184;51.902;12.836;2023-02-22T08:47:03;8.00;99.90
37300;DHT22;23184;51.902;12.836;2023-02-22T08:49:28;8.00;99.90
37300;DHT22;23184;51.902;12.836;2023-02-22T08:51:54;8.10;99.90
37300;DHT22;23184;51.902;12.836;2023-02-22T08:54:20;8.10;99.90
37300;DHT22;23184;51.902;12.836;2023-02-22T08:56:47;8.20;99.90
37300;DHT22;23184;51.902;12.836;2023-02-22T08:59:12;8.20;99.90
37300;DHT22;23184;51.902;12.836;2023-02-22T09:01:38;8.30;99.90
37300;DHT22;23184;51.902;12.836;2023-02-22T09:04:04;8.30;99.90
37300;DHT22;23184;51.902;12.836;2023-02-22T09:06:29;8.30;99.90
37300;DHT22;23184;51.902;12.836;2023-02-22T09:08:55;8.30;99.90
37300;DHT22;23184;51.902;12.836;2023-02-22T09:11:20;8.40;99.90
37300;DHT22;23184;51.902;12.836;2023-02-22T09:13:46;8.40;99.90
37300;DHT22;23184;51.902;12.836;2023-02-22T09:16:11;8.40;99.90
37300;DHT22;23184;51.902;12.836;2023-02-22T09:18:37;8.30;99.90
37300;DHT22;23184;51.902;12.836;2023-02-22T09:21:03;8.40;99.90
37300;DHT22;23184;51.902;12.836;2023-02-22T09:23:29;8.50;99.90
37300;DHT22;23184;51.902;12.836;2023-02-22T09:25:55;8.60;99.90
37300;DHT22;23184;51.902;12.836;2023-02-22T09:28:21;8.60;99.90
37300;DHT22;23184;51.902;12.836;2023-02-22T09:30:46;8.70;99.90
37300;DHT22;23184;51.902;12.836;2023-02-22T09:33:17;8.80;99.90
37300;DHT22;23184;51.902;12.836;2023-02-22T09:35:44;8.80;99.90
37300;DHT22;23184;51.902;12.836;2023-02-22T09:38:12;8.90;99.90
37300;DHT22;23184;51.902;12.836;2023-02-22T09:40:48;8.90;99.90
37300;DHT22;23184;51.902;12.836;2023-02-22T09:46:20;8.80;99.90
37300;DHT22;23184;51.902;12.836;2023-02-22T09:48:50;8.80;99.90
37300;DHT22;23184;51.902;12.836;2023-02-22T09:51:18;8.90;99.90
37300;DHT22;23184;51.902;12.836;2023-02-22T09:53:46;8.90;99.90
37300;DHT22;23184;51.902;12.836;2023-02-22T09:56:16;8.90;99.90
37300;DHT22;23184;51.902;12.836;2023-02-22T09:58:45;8.80;99.90
37300;DHT22;23184;51.902;12.836;2023-02-22T10:01:28;8.80;99.90
37300;DHT22;23184;51.902;12.836;2023-02-22T10:09:44;8.90;99.90
37300;DHT22;23184;51.902;12.836;2023-02-22T10:23:37;9.10;99.90
37300;DHT22;23184;51.902;12.836;2023-02-22T10:26:20;9.10;99.90
37300;DHT22;23184;51.902;12.836;2023-02-22T10:28:57;9.00;99.90
37300;DHT22;23184;51.902;12.836;2023-02-22T10:31:29;9.00;99.90
37300;DHT22;23184;51.902;12.836;2023-02-22T10:34:03;9.00;99.90
37300;DHT22;23184;51.902;12.836;2023-02-22T10:36:31;9.10;99.90
37300;DHT22;23184;51.902;12.836;2023-02-22T10:39:01;9.10;99.90
37300;DHT22;23184;51.902;12.836;2023-02-22T10:41:40;9.10;99.90
37300;DHT22;23184;51.902;12.836;2023-02-22T10:44:08;9.10;99.90
37300;DHT22;23184;51.902;12.836;2023-02-22T10:46:34;9.10;99.90
37300;DHT22;23184;51.902;12.836;2023-02-22T10:49:03;9.20;99.90
37300;DHT22;23184;51.902;12.836;2023-02-22T10:51:31;9.20;99.90
37300;DHT22;23184;51.902;12.836;2023-02-22T10:56:48;9.20;99.90
37300;DHT22;23184;51.902;12.836;2023-02-22T10:59:35;9.20;99.90
37300;DHT22;23184;51.902;12.836;2023-02-22T11:04:48;9.30;99.90
37300;DHT22;23184;51.902;12.836;2023-02-22T11:07:30;9.40;99.90
37300;DHT22;23184;51.902;12.836;2023-02-22T11:10:05;9.30;99.90
37300;DHT22;23184;51.902;12.836;2023-02-22T11:12:37;9.30;99.90
37300;DHT22;23184;51.902;12.836;2023-02-22T11:17:41;9.50;99.90
37300;DHT22;23184;51.902;12.836;2023-02-22T11:20:26;9.60;99.90
37300;DHT22;23184;51.902;12.836;2023-02-22T11:23:03;9.60;99.90
37300;DHT22;23184;51.902;12.836;2023-02-22T11:25:31;9.80;99.90
37300;DHT22;23184;51.902;12.836;2023-02-22T11:28:07;9.90;99.90
37300;DHT22;23184;51.902;12.836;2023-02-22T11:30:34;9.90;99.90
37300;DHT22;23184;51.902;12.836;2023-02-22T11:36:00;10.00;99.90
37300;DHT22;23184;51.902;12.836;2023-02-22T11:38:30;10.00;99.90
37300;DHT22;23184;51.902;12.836;2023-02-22T11:41:20;10.10;99.90
37300;DHT22;23184;51.902;12.836;2023-02-22T11:43:51;10.10;99.90
37300;DHT22;23184;51.902;12.836;2023-02-22T11:46:24;10.10;99.90
37300;DHT22;23184;51.902;12.836;2023-02-22T11:49:02;10.10;99.90
37300;DHT22;23184;51.902;12.836;2023-02-22T12:03:00;10.20;99.90
37300;DHT22;23184;51.902;12.836;2023-02-22T12:21:25;10.70;99.90
37300;DHT22;23184;51.902;12.836;2023-02-22T12:24:06;10.60;99.90
37300;DHT22;23184;51.902;12.836;2023-02-22T12:26:39;10.60;99.90
37300;DHT22;23184;51.902;12.836;2023-02-22T12:31:41;10.50;99.90
37300;DHT22;23184;51.902;12.836;2023-02-22T12:36:54;10.60;99.90
37300;DHT22;23184;51.902;12.836;2023-02-22T12:41:54;10.80;99.90
37300;DHT22;23184;51.902;12.836;2023-02-22T12:44:28;10.80;99.90
37300;DHT22;23184;51.902;12.836;2023-02-22T12:46:57;10.90;99.90
37300;DHT22;23184;51.902;12.836;2023-02-22T12:49:41;10.70;99.90
37300;DHT22;23184;51.902;12.836;2023-02-22T12:52:13;10.60;99.90
37300;DHT22;23184;51.902;12.836;2023-02-22T12:55:00;10.60;99.90
37300;DHT22;23184;51.902;12.836;2023-02-22T12:57:54;10.70;99.90
37300;DHT22;23184;51.902;12.836;2023-02-22T13:03:05;10.90;99.90
37300;DHT22;23184;51.902;12.836;2023-02-22T13:05:36;10.80;99.90
37300;DHT22;23184;51.902;12.836;2023-02-22T13:11:42;10.90;99.90
37300;DHT22;23184;51.902;12.836;2023-02-22T13:14:29;11.00;99.90
37300;DHT22;23184;51.902;12.836;2023-02-22T13:17:19;11.00;99.90
37300;DHT22;23184;51.902;12.836;2023-02-22T13:25:35;10.90;99.90
37300;DHT22;23184;51.902;12.836;2023-02-22T13:31:00;10.80;99.90
37300;DHT22;23184;51.902;12.836;2023-02-22T13:36:54;10.70;99.90
37300;DHT22;23184;51.902;12.836;2023-02-22T13:39:46;10.90;99.90
37300;DHT22;23184;51.902;12.836;2023-02-22T13:45:35;11.10;99.90
37300;DHT22;23184;51.902;12.836;2023-02-22T13:48:26;11.00;99.90
37300;DHT22;23184;51.902;12.836;2023-02-22T13:51:22;11.00;99.90
37300;DHT22;23184;51.902;12.836;2023-02-22T13:56:50;11.00;99.90
37300;DHT22;23184;51.902;12.836;2023-02-22T13:59:29;11.00;99.90
37300;DHT22;23184;51.902;12.836;2023-02-22T14:01:56;11.00;99.90
37300;DHT22;23184;51.902;12.836;2023-02-22T14:04:34;11.00;99.90
37300;DHT22;23184;51.902;12.836;2023-02-22T14:07:48;11.00;99.90
37300;DHT22;23184;51.902;12.836;2023-02-22T14:09:56;11.00;99.90
37300;DHT22;23184;51.902;12.836;2023-02-22T14:15:13;10.90;99.90
37300;DHT22;23184;51.902;12.836;2023-02-22T14:17:45;10.80;99.90
37300;DHT22;23184;51.902;12.836;2023-02-22T14:22:41;10.60;99.90
37300;DHT22;23184;51.902;12.836;2023-02-22T14:25:30;10.60;99.90
37300;DHT22;23184;51.902;12.836;2023-02-22T14:27:56;10.60;99.90
37300;DHT22;23184;51.902;12.836;2023-02-22T14:30:29;10.60;99.90
37300;DHT22;23184;51.902;12.836;2023-02-22T14:32:55;10.60;99.90
37300;DHT22;23184;51.902;12.836;2023-02-22T14:35:21;10.60;99.90
37300;DHT22;23184;51.902;12.836;2023-02-22T14:37:54;10.60;99.90
37300;DHT22;23184;51.902;12.836;2023-02-22T14:40:22;10.60;99.90
37300;DHT22;23184;51.902;12.836;2023-02-22T14:43:18;10.60;99.90
37300;DHT22;23184;51.902;12.836;2023-02-22T14:45:51;10.60;99.90
37300;DHT22;23184;51.902;12.836;2023-02-22T14:48:31;10.60;99.90
37300;DHT22;23184;51.902;12.836;2023-02-22T14:51:22;10.50;99.90
37300;DHT22;23184;51.902;12.836;2023-02-22T14:56:22;10.40;99.90
37300;DHT22;23184;51.902;12.836;2023-02-22T14:59:10;10.40;99.90
37300;DHT22;23184;51.902;12.836;2023-02-22T15:01:37;10.30;99.90
37300;DHT22;23184;51.902;12.836;2023-02-22T15:06:40;10.30;99.90
37300;DHT22;23184;51.902;12.836;2023-02-22T15:09:19;10.30;99.90
37300;DHT22;23184;51.902;12.836;2023-02-22T15:11:50;10.30;99.90
37300;DHT22;23184;51.902;12.836;2023-02-22T15:14:21;10.30;99.90
37300;DHT22;23184;51.902;12.836;2023-02-22T15:16:59;10.30;99.90
37300;DHT22;23184;51.902;12.836;2023-02-22T15:19:31;10.20;99.90
37300;DHT22;23184;51.902;12.836;2023-02-22T15:21:58;10.20;99.90
37300;DHT22;23184;51.902;12.836;2023-02-22T15:24:35;10.10;99.90
37300;DHT22;23184;51.902;12.836;2023-02-22T15:27:13;10.10;99.90
37300;DHT22;23184;51.902;12.836;2023-02-22T15:29:41;10.10;99.90
37300;DHT22;23184;51.902;12.836;2023-02-22T15:32:32;10.10;99.90
37300;DHT22;23184;51.902;12.836;2023-02-22T15:38:00;10.00;99.90
37300;DHT22;23184;51.902;12.836;2023-02-22T15:40:26;9.90;99.90
37300;DHT22;23184;51.902;12.836;2023-02-22T15:43:04;9.90;99.90
37300;DHT22;23184;51.902;12.836;2023-02-22T15:45:32;9.80;99.90
37300;DHT22;23184;51.902;12.836;2023-02-22T15:47:58;9.80;99.90
37300;DHT22;23184;51.902;12.836;2023-02-22T15:50:33;9.70;99.90
37300;DHT22;23184;51.902;12.836;2023-02-22T15:52:59;9.70;99.90
37300;DHT22;23184;51.902;12.836;2023-02-22T15:55:40;9.60;99.90
37300;DHT22;23184;51.902;12.836;2023-02-22T15:58:17;9.50;99.90
37300;DHT22;23184;51.902;12.836;2023-02-22T16:00:56;9.50;99.90
37300;DHT22;23184;51.902;12.836;2023-02-22T16:03:23;9.40;99.90
37300;DHT22;23184;51.902;12.836;2023-02-22T16:05:54;9.40;99.90
37300;DHT22;23184;51.902;12.836;2023-02-22T16:08:24;9.30;99.90
37300;DHT22;23184;51.902;12.836;2023-02-22T16:11:10;9.30;99.90
37300;DHT22;23184;51.902;12.836;2023-02-22T16:13:40;9.20;99.90
37300;DHT22;23184;51.902;12.836;2023-02-22T16:18:47;9.10;99.90
37300;DHT22;23184;51.902;12.836;2023-02-22T16:21:20;9.00;99.90
37300;DHT22;23184;51.902;12.836;2023-02-22T16:23:51;8.90;99.90
37300;DHT22;23184;51.902;12.836;2023-02-22T16:26:30;8.90;99.90
37300;DHT22;23184;51.902;12.836;2023-02-22T16:28:56;8.80;99.90
37300;DHT22;23184;51.902;12.836;2023-02-22T16:31:25;8.80;99.90
37300;DHT22;23184;51.902;12.836;2023-02-22T16:33:52;8.80;99.90
37300;DHT22;23184;51.902;12.836;2023-02-22T16:36:20;8.70;99.90
37300;DHT22;23184;51.902;12.836;2023-02-22T16:38:47;8.60;99.90
37300;DHT22;23184;51.902;12.836;2023-02-22T16:41:14;8.60;99.90
37300;DHT22;23184;51.902;12.836;2023-02-22T16:43:45;8.60;99.90
37300;DHT22;23184;51.902;12.836;2023-02-22T16:46:12;8.50;99.90
37300;DHT22;23184;51.902;12.836;2023-02-22T16:48:41;8.50;99.90
37300;DHT22;23184;51.902;12.836;2023-02-22T16:51:26;8.40;99.90
37300;DHT22;23184;51.902;12.836;2023-02-22T16:53:53;8.40;99.90
37300;DHT22;23184;51.902;12.836;2023-02-22T16:56:23;8.30;99.90
37300;DHT22;23184;51.902;12.836;2023-02-22T16:58:50;8.30;99.90
37300;DHT22;23184;51.902;12.836;2023-02-22T17:01:17;8.30;99.90
37300;DHT22;23184;51.902;12.836;2023-02-22T17:03:44;8.20;99.90
37300;DHT22;23184;51.902;12.836;2023-02-22T17:06:10;8.20;99.90
37300;DHT22;23184;51.902;12.836;2023-02-22T17:08:37;8.10;99.90
37300;DHT22;23184;51.902;12.836;2023-02-22T17:11:03;8.10;99.90
37300;DHT22;23184;51.902;12.836;2023-02-22T17:13:29;8.10;99.90
37300;DHT22;23184;51.902;12.836;2023-02-22T17:15:55;8.10;99.90
37300;DHT22;23184;51.902;12.836;2023-02-22T17:18:22;8.00;99.90
37300;DHT22;23184;51.902;12.836;2023-02-22T17:20:52;8.00;99.90
37300;DHT22;23184;51.902;12.836;2023-02-22T17:23:19;7.90;99.90
37300;DHT22;23184;51.902;12.836;2023-02-22T17:25:51;7.90;99.90
37300;DHT22;23184;51.902;12.836;2023-02-22T17:28:21;7.90;99.90
37300;DHT22;23184;51.902;12.836;2023-02-22T17:30:48;7.80;99.90
37300;DHT22;23184;51.902;12.836;2023-02-22T17:33:15;7.80;99.90
37300;DHT22;23184;51.902;12.836;2023-02-22T17:35:41;7.80;99.90
37300;DHT22;23184;51.902;12.836;2023-02-22T17:38:08;7.70;99.90
37300;DHT22;23184;51.902;12.836;2023-02-22T17:40:35;7.70;99.90
37300;DHT22;23184;51.902;12.836;2023-02-22T17:43:02;7.70;99.90
37300;DHT22;23184;51.902;12.836;2023-02-22T17:45:28;7.60;99.90
37300;DHT22;23184;51.902;12.836;2023-02-22T17:47:54;7.60;99.90
37300;DHT22;23184;51.902;12.836;2023-02-22T17:50:21;7.60;99.90
37300;DHT22;23184;51.902;12.836;2023-02-22T17:52:48;7.50;99.90
37300;DHT22;23184;51.902;12.836;2023-02-22T17:55:17;7.50;99.90
37300;DHT22;23184;51.902;12.836;2023-02-22T17:57:44;7.50;99.90